createdAt,value
2018-11-10T00:00:25.295Z,68.65
2018-11-10T00:00:56.395Z,67.90
2018-11-10T00:01:27.504Z,68.39
2018-11-10T00:01:58.667Z,68.30
2018-11-10T00:02:29.802Z,68.06
2018-11-10T00:03:00.930Z,67.95
2018-11-10T00:03:32.070Z,68.44
2018-11-10T00:04:03.237Z,68.30
2018-11-10T00:04:34.371Z,67.86
2018-11-10T00:05:05.507Z,68.28
2018-11-10T00:05:36.629Z,68.31
2018-11-10T00:06:07.794Z,68.58
2018-11-10T00:06:38.906Z,68.26
2018-11-10T00:07:10.066Z,68.07
2018-11-10T00:07:41.224Z,68.45
2018-11-10T00:08:12.373Z,68.35
2018-11-10T00:08:43.476Z,68.01
2018-11-10T00:09:14.589Z,67.75
2018-11-10T00:09:45.745Z,68.17
2018-11-10T00:10:16.896Z,68.07
2018-11-10T00:10:48.022Z,67.56
2018-11-10T00:11:19.154Z,67.43
2018-11-10T00:11:50.306Z,67.66
2018-11-10T00:12:21.488Z,67.81
2018-11-10T00:12:52.593Z,68.12
2018-11-10T00:13:23.751Z,68.04
2018-11-10T00:13:54.887Z,68.35
2018-11-10T00:14:26.034Z,68.08
2018-11-10T00:14:57.150Z,67.93
2018-11-10T00:15:28.252Z,68.33
2018-11-10T00:15:59.355Z,67.90
2018-11-10T00:16:30.584Z,67.65
2018-11-10T00:17:01.719Z,68.01
2018-11-10T00:17:32.848Z,68.02
2018-11-10T00:18:03.952Z,68.24
2018-11-10T00:18:35.057Z,67.95
2018-11-10T00:19:06.188Z,68.00
2018-11-10T00:19:37.311Z,68.65
2018-11-10T00:20:08.460Z,69.00
2018-11-10T00:20:39.584Z,68.89
2018-11-10T00:21:10.758Z,68.99
2018-11-10T00:21:41.894Z,68.91
2018-11-10T00:22:13.789Z,68.71
2018-11-10T00:22:44.960Z,68.79
2018-11-10T00:23:16.121Z,68.59
2018-11-10T00:23:47.249Z,68.21
2018-11-10T00:24:18.354Z,68.18
2018-11-10T00:24:49.486Z,68.27
2018-11-10T00:25:20.637Z,68.37
2018-11-10T00:25:51.746Z,68.13
2018-11-10T00:26:22.851Z,68.08
2018-11-10T00:26:53.983Z,67.73
2018-11-10T00:27:25.091Z,67.69
2018-11-10T00:27:56.205Z,67.38
2018-11-10T00:28:27.384Z,67.42
2018-11-10T00:28:58.508Z,68.03
2018-11-10T00:29:29.637Z,67.01
2018-11-10T00:30:00.801Z,67.46
2018-11-10T00:30:31.918Z,67.30
2018-11-10T00:31:03.055Z,67.43
2018-11-10T00:31:34.179Z,67.51
2018-11-10T00:32:05.304Z,67.38
2018-11-10T00:32:36.419Z,66.80
2018-11-10T00:33:07.543Z,67.27
2018-11-10T00:33:38.711Z,67.21
2018-11-10T00:34:09.834Z,66.95
2018-11-10T00:34:40.989Z,67.20
2018-11-10T00:35:12.154Z,67.45
2018-11-10T00:35:43.288Z,67.49
2018-11-10T00:36:14.403Z,67.19
2018-11-10T00:36:45.531Z,67.62
2018-11-10T00:37:16.670Z,67.53
2018-11-10T00:37:47.793Z,67.95
2018-11-10T00:38:18.914Z,68.00
2018-11-10T00:38:50.117Z,67.50
2018-11-10T00:39:21.231Z,67.96
2018-11-10T00:39:52.367Z,67.87
2018-11-10T00:40:23.482Z,67.84
2018-11-10T00:40:54.633Z,68.01
2018-11-10T00:41:25.797Z,68.05
2018-11-10T00:41:57.019Z,67.67
2018-11-10T00:42:28.181Z,68.04
2018-11-10T00:42:59.346Z,68.25
2018-11-10T00:43:30.456Z,67.92
2018-11-10T00:44:01.638Z,68.07
2018-11-10T00:44:32.748Z,68.27
2018-11-10T00:45:03.850Z,68.10
2018-11-10T00:45:35.005Z,68.04
2018-11-10T00:46:06.130Z,67.85
2018-11-10T00:46:37.231Z,68.24
2018-11-10T00:47:08.378Z,68.03
2018-11-10T00:47:39.498Z,68.07
2018-11-10T00:48:10.611Z,68.51
2018-11-10T00:48:41.716Z,68.01
2018-11-10T00:49:12.836Z,68.29
2018-11-10T00:49:43.953Z,68.68
2018-11-10T00:50:15.130Z,68.32
2018-11-10T00:50:46.239Z,68.19
2018-11-10T00:51:17.392Z,69.14
2018-11-10T00:51:48.493Z,69.01
2018-11-10T00:52:19.607Z,69.00
2018-11-10T00:52:50.756Z,69.25
2018-11-10T00:53:21.863Z,68.64
2018-11-10T00:53:52.998Z,69.20
2018-11-10T00:54:24.127Z,69.16
2018-11-10T00:54:55.274Z,69.21
2018-11-10T00:55:26.449Z,69.12
2018-11-10T00:55:57.600Z,69.43
2018-11-10T00:56:28.795Z,69.25
2018-11-10T00:56:59.921Z,69.08
2018-11-10T00:57:31.076Z,69.37
2018-11-10T00:58:02.234Z,69.83
2018-11-10T00:58:33.369Z,69.84
2018-11-10T00:59:04.478Z,69.84
2018-11-10T00:59:35.595Z,70.13
2018-11-10T01:00:06.732Z,69.97
2018-11-10T01:00:37.910Z,69.67
2018-11-10T01:01:09.023Z,69.97
2018-11-10T01:01:40.184Z,69.80
2018-11-10T01:02:11.299Z,69.93
2018-11-10T01:02:42.409Z,69.79
2018-11-10T01:03:13.545Z,69.63
2018-11-10T01:03:44.675Z,69.13
2018-11-10T01:04:15.854Z,69.67
2018-11-10T01:04:47.014Z,69.71
2018-11-10T01:05:18.159Z,69.72
2018-11-10T01:05:49.319Z,69.18
2018-11-10T01:06:20.424Z,69.58
2018-11-10T01:06:51.556Z,69.79
2018-11-10T01:07:22.681Z,69.92
2018-11-10T01:07:53.806Z,69.37
2018-11-10T01:08:24.918Z,70.00
2018-11-10T01:08:56.068Z,70.01
2018-11-10T01:09:27.197Z,69.86
2018-11-10T01:09:58.306Z,70.03
2018-11-10T01:10:29.424Z,69.74
2018-11-10T01:11:00.554Z,70.15
2018-11-10T01:11:31.667Z,70.16
2018-11-10T01:12:02.777Z,69.84
2018-11-10T01:12:34.066Z,70.08
2018-11-10T01:13:05.192Z,69.95
2018-11-10T01:13:36.394Z,70.09
2018-11-10T01:14:09.396Z,69.43
2018-11-10T01:14:40.527Z,69.54
2018-11-10T01:15:11.634Z,69.29
2018-11-10T01:15:42.852Z,69.69
2018-11-10T01:16:13.995Z,68.90
2018-11-10T01:16:45.157Z,69.71
2018-11-10T01:17:16.321Z,69.69
2018-11-10T01:17:47.463Z,69.56
2018-11-10T01:18:18.606Z,70.00
2018-11-10T01:18:49.715Z,69.65
2018-11-10T01:19:20.856Z,70.28
2018-11-10T01:19:51.973Z,69.87
2018-11-10T01:20:23.099Z,70.07
2018-11-10T01:20:54.230Z,70.14
2018-11-10T01:21:25.362Z,70.08
2018-11-10T01:21:56.499Z,69.83
2018-11-10T01:22:27.645Z,70.09
2018-11-10T01:22:58.755Z,69.85
2018-11-10T01:23:29.887Z,70.22
2018-11-10T01:24:01.963Z,70.02
2018-11-10T01:24:33.098Z,69.82
2018-11-10T01:25:04.227Z,69.55
2018-11-10T01:25:35.338Z,70.00
2018-11-10T01:26:06.460Z,69.93
2018-11-10T01:26:37.564Z,70.04
2018-11-10T01:27:08.775Z,70.57
2018-11-10T01:27:39.907Z,70.11
2018-11-10T01:28:11.067Z,70.12
2018-11-10T01:28:42.240Z,70.39
2018-11-10T01:29:13.389Z,69.95
2018-11-10T01:29:44.482Z,70.09
2018-11-10T01:30:15.596Z,70.24
2018-11-10T01:30:46.724Z,69.98
2018-11-10T01:31:17.905Z,69.94
2018-11-10T01:31:49.037Z,69.79
2018-11-10T01:32:20.175Z,70.24
2018-11-10T01:32:51.322Z,70.29
2018-11-10T01:33:22.436Z,70.39
2018-11-10T01:33:53.534Z,70.23
2018-11-10T01:34:24.683Z,70.27
2018-11-10T01:34:55.786Z,70.22
2018-11-10T01:35:26.894Z,69.73
2018-11-10T01:35:58.038Z,70.20
2018-11-10T01:36:29.167Z,70.08
2018-11-10T01:37:00.272Z,70.68
2018-11-10T01:37:31.383Z,70.46
2018-11-10T01:38:02.574Z,70.44
2018-11-10T01:38:33.699Z,70.98
2018-11-10T01:39:04.833Z,70.55
2018-11-10T01:39:35.941Z,70.94
2018-11-10T01:40:07.074Z,70.79
2018-11-10T01:40:38.199Z,70.34
2018-11-10T01:41:09.355Z,70.85
2018-11-10T01:41:40.495Z,70.77
2018-11-10T01:42:11.611Z,70.54
2018-11-10T01:42:42.733Z,70.46
2018-11-10T01:43:13.885Z,70.27
2018-11-10T01:43:44.992Z,70.92
2018-11-10T01:44:16.124Z,70.69
2018-11-10T01:44:47.241Z,70.32
2018-11-10T01:45:18.345Z,70.79
2018-11-10T01:45:49.450Z,70.80
2018-11-10T01:46:20.561Z,70.46
2018-11-10T01:46:51.705Z,70.38
2018-11-10T01:47:22.848Z,70.64
2018-11-10T01:47:54.049Z,70.63
2018-11-10T01:48:25.220Z,70.67
2018-11-10T01:48:56.331Z,70.56
2018-11-10T01:49:27.446Z,70.66
2018-11-10T01:49:58.584Z,70.75
2018-11-10T01:50:29.692Z,70.10
2018-11-10T01:51:00.822Z,70.36
2018-11-10T01:51:31.929Z,70.56
2018-11-10T01:52:03.077Z,70.31
2018-11-10T01:52:34.178Z,70.38
2018-11-10T01:53:05.292Z,71.12
2018-11-10T01:53:36.468Z,71.09
2018-11-10T01:54:07.599Z,71.00
2018-11-10T01:54:38.724Z,71.21
2018-11-10T01:55:09.892Z,71.01
2018-11-10T01:55:41.437Z,71.00
2018-11-10T01:56:12.629Z,70.85
2018-11-10T01:56:43.764Z,71.11
2018-11-10T01:57:14.901Z,71.01
2018-11-10T01:57:46.130Z,71.23
2018-11-10T01:58:17.234Z,71.00
2018-11-10T01:58:48.363Z,71.19
2018-11-10T01:59:19.501Z,71.19
2018-11-10T01:59:50.614Z,71.14
2018-11-10T02:00:22.506Z,71.02
2018-11-10T02:00:53.622Z,71.12
2018-11-10T02:01:24.733Z,71.10
2018-11-10T02:01:55.841Z,71.47
2018-11-10T02:02:26.977Z,71.47
2018-11-10T02:02:58.088Z,71.26
2018-11-10T02:03:29.215Z,70.59
2018-11-10T02:04:00.350Z,70.69
2018-11-10T02:04:31.678Z,70.24
2018-11-10T02:05:02.779Z,70.84
2018-11-10T02:05:33.963Z,70.13
2018-11-10T02:06:05.120Z,70.51
2018-11-10T02:06:36.347Z,70.81
2018-11-10T02:07:07.505Z,71.10
2018-11-10T02:07:38.614Z,70.52
2018-11-10T02:08:09.763Z,70.96
2018-11-10T02:08:40.919Z,70.83
2018-11-10T02:09:12.032Z,70.84
2018-11-10T02:09:43.210Z,70.45
2018-11-10T02:10:14.303Z,70.65
2018-11-10T02:10:45.486Z,70.32
2018-11-10T02:11:16.604Z,70.20
2018-11-10T02:11:47.735Z,70.37
2018-11-10T02:12:18.844Z,70.53
2018-11-10T02:12:49.956Z,70.55
2018-11-10T02:13:21.072Z,70.66
2018-11-10T02:13:52.202Z,70.86
2018-11-10T02:14:23.338Z,71.17
2018-11-10T02:14:54.480Z,71.29
2018-11-10T02:15:25.674Z,71.29
2018-11-10T02:15:56.838Z,71.96
2018-11-10T02:16:27.952Z,72.00
2018-11-10T02:16:59.094Z,72.08
2018-11-10T02:17:30.286Z,71.81
2018-11-10T02:18:01.399Z,72.18
2018-11-10T02:18:32.551Z,71.92
2018-11-10T02:19:03.659Z,72.26
2018-11-10T02:19:34.791Z,72.28
2018-11-10T02:20:05.908Z,72.46
2018-11-10T02:20:37.055Z,72.90
2018-11-10T02:21:08.182Z,72.90
2018-11-10T02:21:39.304Z,72.72
2018-11-10T02:22:10.412Z,72.32
2018-11-10T02:22:41.574Z,72.96
2018-11-10T02:23:12.726Z,72.59
2018-11-10T02:23:43.880Z,72.81
2018-11-10T02:24:15.017Z,72.19
2018-11-10T02:24:46.155Z,72.40
2018-11-10T02:25:17.355Z,72.16
2018-11-10T02:25:48.519Z,72.43
2018-11-10T02:26:19.765Z,72.01
2018-11-10T02:26:50.885Z,72.14
2018-11-10T02:27:22.039Z,72.41
2018-11-10T02:27:53.179Z,72.08
2018-11-10T02:28:24.284Z,72.29
2018-11-10T02:28:55.442Z,72.21
2018-11-10T02:29:28.290Z,72.31
2018-11-10T02:29:59.408Z,72.38
2018-11-10T02:30:30.565Z,72.64
2018-11-10T02:31:01.672Z,72.71
2018-11-10T02:31:32.839Z,72.47
2018-11-10T02:32:03.941Z,72.59
2018-11-10T02:32:35.056Z,72.51
2018-11-10T02:33:06.188Z,72.90
2018-11-10T02:33:37.416Z,72.69
2018-11-10T02:34:08.525Z,72.40
2018-11-10T02:34:39.659Z,72.16
2018-11-10T02:35:10.810Z,72.16
2018-11-10T02:35:41.939Z,72.00
2018-11-10T02:36:13.056Z,71.97
2018-11-10T02:36:44.216Z,72.03
2018-11-10T02:37:15.347Z,72.42
2018-11-10T02:37:46.477Z,72.40
2018-11-10T02:38:17.611Z,72.25
2018-11-10T02:38:48.859Z,72.08
2018-11-10T02:39:19.919Z,72.02
2018-11-10T02:39:51.051Z,71.74
2018-11-10T02:40:22.190Z,72.46
2018-11-10T02:40:53.300Z,72.23
2018-11-10T02:41:24.425Z,72.46
2018-11-10T02:41:55.563Z,72.35
2018-11-10T02:42:26.677Z,72.32
2018-11-10T02:42:57.788Z,72.28
2018-11-10T02:43:28.897Z,72.59
2018-11-10T02:44:00.026Z,71.92
2018-11-10T02:44:31.910Z,72.23
2018-11-10T02:45:03.052Z,71.83
2018-11-10T02:45:34.176Z,72.06
2018-11-10T02:46:05.272Z,72.40
2018-11-10T02:46:36.404Z,72.26
2018-11-10T02:47:07.559Z,72.14
2018-11-10T02:47:38.719Z,71.88
2018-11-10T02:48:09.897Z,71.85
2018-11-10T02:48:41.035Z,71.87
2018-11-10T02:49:12.152Z,72.25
2018-11-10T02:49:43.284Z,72.10
2018-11-10T02:50:14.390Z,71.78
2018-11-10T02:50:45.543Z,72.34
2018-11-10T02:51:16.656Z,72.16
2018-11-10T02:51:47.809Z,72.25
2018-11-10T02:52:18.994Z,72.51
2018-11-10T02:52:50.184Z,72.40
2018-11-10T02:53:21.299Z,72.56
2018-11-10T02:53:52.428Z,72.62
2018-11-10T02:54:23.609Z,72.30
2018-11-10T02:54:54.751Z,72.31
2018-11-10T02:55:25.950Z,72.15
2018-11-10T02:55:57.101Z,72.40
2018-11-10T02:56:28.234Z,72.49
2018-11-10T02:56:59.390Z,72.50
2018-11-10T02:57:30.546Z,72.43
2018-11-10T02:58:01.684Z,72.26
2018-11-10T02:58:32.831Z,72.00
2018-11-10T02:59:03.954Z,72.23
2018-11-10T02:59:35.088Z,71.80
2018-11-10T03:00:06.243Z,71.87
2018-11-10T03:00:37.436Z,72.33
2018-11-10T03:01:08.573Z,72.38
2018-11-10T03:01:39.743Z,72.41
2018-11-10T03:02:10.916Z,72.46
2018-11-10T03:02:42.050Z,72.66
2018-11-10T03:03:13.180Z,72.51
2018-11-10T03:03:44.326Z,72.02
2018-11-10T03:04:15.433Z,72.19
2018-11-10T03:04:47.187Z,72.92
2018-11-10T03:05:18.310Z,72.72
2018-11-10T03:05:49.442Z,72.58
2018-11-10T03:06:20.603Z,72.78
2018-11-10T03:06:51.781Z,73.13
2018-11-10T03:07:22.923Z,72.92
2018-11-10T03:07:54.046Z,73.17
2018-11-10T03:08:25.174Z,72.80
2018-11-10T03:08:56.297Z,72.95
2018-11-10T03:09:27.409Z,73.06
2018-11-10T03:09:58.549Z,72.83
2018-11-10T03:10:29.706Z,72.66
2018-11-10T03:11:00.819Z,73.00
2018-11-10T03:11:32.000Z,73.25
2018-11-10T03:12:03.133Z,72.88
2018-11-10T03:12:34.241Z,72.62
2018-11-10T03:13:05.420Z,73.06
2018-11-10T03:13:36.536Z,73.10
2018-11-10T03:14:07.662Z,72.79
2018-11-10T03:14:38.818Z,72.67
2018-11-10T03:15:10.013Z,73.12
2018-11-10T03:15:41.138Z,73.00
2018-11-10T03:16:12.291Z,73.08
2018-11-10T03:16:43.404Z,73.56
2018-11-10T03:17:14.526Z,73.10
2018-11-10T03:17:45.659Z,73.18
2018-11-10T03:18:16.770Z,73.57
2018-11-10T03:18:47.889Z,72.78
2018-11-10T03:19:19.055Z,72.62
2018-11-10T03:19:50.173Z,72.86
2018-11-10T03:20:21.342Z,72.99
2018-11-10T03:20:52.467Z,73.32
2018-11-10T03:21:23.595Z,73.05
2018-11-10T03:21:54.750Z,73.10
2018-11-10T03:22:25.927Z,73.23
2018-11-10T03:22:57.078Z,73.47
2018-11-10T03:23:28.200Z,73.71
2018-11-10T03:23:59.322Z,73.50
2018-11-10T03:24:30.465Z,73.72
2018-11-10T03:25:01.589Z,73.88
2018-11-10T03:25:32.766Z,73.62
2018-11-10T03:26:03.878Z,73.77
2018-11-10T03:26:34.998Z,73.68
2018-11-10T03:27:06.134Z,73.38
2018-11-10T03:27:37.315Z,73.40
2018-11-10T03:28:08.426Z,73.54
2018-11-10T03:28:39.568Z,73.38
2018-11-10T03:29:10.705Z,73.67
2018-11-10T03:29:41.879Z,73.60
2018-11-10T03:30:13.027Z,73.76
2018-11-10T03:30:44.164Z,73.70
2018-11-10T03:31:15.294Z,73.82
2018-11-10T03:31:46.407Z,74.01
2018-11-10T03:32:17.548Z,73.47
2018-11-10T03:32:48.657Z,73.46
2018-11-10T03:33:19.798Z,73.46
2018-11-10T03:33:50.897Z,73.83
2018-11-10T03:34:22.025Z,73.94
2018-11-10T03:34:53.162Z,73.88
2018-11-10T03:35:24.294Z,73.68
2018-11-10T03:35:55.408Z,73.35
2018-11-10T03:36:26.531Z,73.60
2018-11-10T03:36:57.689Z,73.79
2018-11-10T03:37:28.804Z,73.88
2018-11-10T03:37:59.912Z,74.10
2018-11-10T03:38:31.073Z,74.15
2018-11-10T03:39:02.224Z,73.82
2018-11-10T03:39:33.331Z,73.48
2018-11-10T03:40:04.498Z,73.22
2018-11-10T03:40:35.664Z,73.37
2018-11-10T03:41:06.793Z,73.49
2018-11-10T03:41:37.941Z,73.45
2018-11-10T03:42:09.047Z,73.44
2018-11-10T03:42:40.148Z,73.50
2018-11-10T03:43:11.260Z,73.29
2018-11-10T03:43:42.397Z,73.20
2018-11-10T03:44:13.542Z,73.66
2018-11-10T03:44:44.674Z,73.20
2018-11-10T03:45:15.848Z,72.97
2018-11-10T03:45:46.990Z,73.44
2018-11-10T03:46:18.125Z,73.31
2018-11-10T03:46:49.247Z,73.52
2018-11-10T03:47:20.402Z,73.25
2018-11-10T03:47:51.541Z,73.68
2018-11-10T03:48:22.679Z,73.81
2018-11-10T03:48:53.939Z,73.75
2018-11-10T03:49:24.969Z,73.54
2018-11-10T03:49:56.087Z,74.07
2018-11-10T03:50:27.219Z,74.32
2018-11-10T03:50:58.361Z,73.98
2018-11-10T03:51:29.486Z,73.91
2018-11-10T03:52:00.655Z,73.96
2018-11-10T03:52:31.817Z,74.28
2018-11-10T03:53:02.923Z,74.52
2018-11-10T03:53:34.068Z,74.84
2018-11-10T03:54:05.235Z,74.76
2018-11-10T03:54:36.352Z,74.40
2018-11-10T03:55:07.536Z,75.18
2018-11-10T03:55:38.667Z,75.27
2018-11-10T03:56:09.808Z,75.17
2018-11-10T03:56:41.712Z,75.12
2018-11-10T03:57:12.832Z,74.88
2018-11-10T03:57:43.937Z,75.12
2018-11-10T03:58:15.046Z,74.89
2018-11-10T03:58:46.171Z,75.44
2018-11-10T03:59:17.344Z,75.51
2018-11-10T03:59:48.490Z,75.56
2018-11-10T04:00:19.653Z,75.42
2018-11-10T04:00:50.781Z,75.45
2018-11-10T04:01:21.902Z,76.26
2018-11-10T04:01:53.019Z,76.77
2018-11-10T04:02:24.155Z,76.29
2018-11-10T04:02:55.359Z,76.23
2018-11-10T04:03:26.476Z,75.74
2018-11-10T04:03:57.602Z,75.18
2018-11-10T04:04:28.759Z,75.01
2018-11-10T04:04:59.887Z,75.15
2018-11-10T04:05:31.143Z,74.88
2018-11-10T04:06:02.272Z,75.32
2018-11-10T04:06:33.457Z,75.39
2018-11-10T04:07:04.574Z,75.15
2018-11-10T04:07:35.715Z,74.98
2018-11-10T04:08:06.828Z,74.51
2018-11-10T04:08:37.951Z,74.50
2018-11-10T04:09:09.062Z,74.74
2018-11-10T04:09:40.220Z,74.77
2018-11-10T04:10:11.322Z,74.53
2018-11-10T04:10:42.463Z,74.75
2018-11-10T04:11:13.575Z,74.82
2018-11-10T04:11:44.711Z,75.11
2018-11-10T04:12:15.822Z,74.99
2018-11-10T04:12:46.937Z,75.10
2018-11-10T04:13:18.094Z,75.13
2018-11-10T04:13:49.204Z,75.28
2018-11-10T04:14:20.362Z,75.53
2018-11-10T04:14:51.526Z,75.61
2018-11-10T04:15:22.635Z,75.67
2018-11-10T04:15:53.761Z,75.75
2018-11-10T04:16:24.876Z,75.68
2018-11-10T04:16:56.998Z,75.65
2018-11-10T04:17:28.121Z,76.14
2018-11-10T04:17:59.254Z,76.33
2018-11-10T04:18:30.379Z,76.19
2018-11-10T04:19:01.485Z,76.88
2018-11-10T04:19:32.650Z,77.03
2018-11-10T04:20:03.835Z,76.71
2018-11-10T04:20:35.755Z,77.20
2018-11-10T04:21:06.857Z,77.34
2018-11-10T04:21:37.964Z,77.44
2018-11-10T04:22:09.066Z,77.37
2018-11-10T04:22:40.202Z,77.55
2018-11-10T04:23:11.325Z,77.79
2018-11-10T04:23:42.498Z,77.42
2018-11-10T04:24:13.647Z,77.44
2018-11-10T04:24:44.796Z,77.37
2018-11-10T04:25:15.910Z,77.33
2018-11-10T04:25:47.056Z,77.52
2018-11-10T04:26:18.194Z,77.06
2018-11-10T04:26:49.330Z,77.43
2018-11-10T04:27:20.917Z,77.28
2018-11-10T04:27:52.090Z,77.74
2018-11-10T04:28:23.235Z,77.65
2018-11-10T04:28:54.356Z,77.82
2018-11-10T04:29:25.459Z,77.97
2018-11-10T04:29:56.562Z,78.10
2018-11-10T04:30:27.693Z,78.50
2018-11-10T04:30:58.817Z,77.77
2018-11-10T04:31:29.955Z,78.11
2018-11-10T04:32:01.103Z,78.17
2018-11-10T04:32:32.234Z,78.13
2018-11-10T04:33:03.422Z,77.55
2018-11-10T04:33:34.538Z,77.44
2018-11-10T04:34:05.675Z,77.92
2018-11-10T04:34:36.804Z,77.83
2018-11-10T04:35:07.935Z,77.86
2018-11-10T04:35:39.051Z,77.78
2018-11-10T04:36:10.165Z,77.86
2018-11-10T04:36:41.296Z,77.60
2018-11-10T04:37:12.452Z,77.43
2018-11-10T04:37:43.565Z,77.36
2018-11-10T04:38:14.672Z,77.37
2018-11-10T04:38:45.765Z,77.12
2018-11-10T04:39:16.877Z,77.34
2018-11-10T04:39:47.991Z,77.53
2018-11-10T04:40:19.096Z,76.86
2018-11-10T04:40:50.263Z,76.74
2018-11-10T04:41:21.383Z,77.05
2018-11-10T04:41:52.511Z,77.34
2018-11-10T04:42:23.620Z,77.48
2018-11-10T04:42:54.766Z,77.35
2018-11-10T04:43:25.867Z,77.43
2018-11-10T04:43:57.772Z,77.42
2018-11-10T04:44:28.887Z,77.48
2018-11-10T04:44:59.990Z,76.95
2018-11-10T04:45:31.124Z,77.18
2018-11-10T04:46:02.322Z,77.34
2018-11-10T04:46:33.467Z,77.12
2018-11-10T04:47:04.588Z,76.73
2018-11-10T04:47:35.744Z,76.51
2018-11-10T04:48:06.865Z,76.40
2018-11-10T04:48:38.877Z,76.67
2018-11-10T04:49:10.016Z,76.69
2018-11-10T04:49:41.161Z,76.68
2018-11-10T04:50:12.285Z,76.99
2018-11-10T04:50:43.419Z,76.94
2018-11-10T04:51:14.619Z,77.07
2018-11-10T04:51:45.759Z,77.42
2018-11-10T04:52:16.863Z,76.80
2018-11-10T04:52:48.002Z,77.09
2018-11-10T04:53:19.169Z,76.82
2018-11-10T04:53:50.308Z,77.32
2018-11-10T04:54:21.423Z,77.25
2018-11-10T04:54:52.530Z,77.38
2018-11-10T04:55:23.664Z,77.57
2018-11-10T04:55:54.764Z,77.41
2018-11-10T04:56:25.891Z,77.08
2018-11-10T04:56:57.053Z,77.20
2018-11-10T04:57:28.174Z,76.87
2018-11-10T04:57:59.275Z,77.14
2018-11-10T04:58:30.447Z,77.22
2018-11-10T04:59:38.905Z,77.04
2018-11-10T05:00:10.106Z,76.84
2018-11-10T05:00:41.261Z,77.09
2018-11-10T05:01:12.389Z,76.77
2018-11-10T05:01:43.550Z,76.92
2018-11-10T05:02:14.675Z,76.72
2018-11-10T05:02:46.637Z,77.08
2018-11-10T05:03:17.733Z,76.77
2018-11-10T05:03:48.893Z,76.28
2018-11-10T05:04:20.031Z,76.52
2018-11-10T05:04:51.227Z,76.66
2018-11-10T05:05:22.314Z,76.57
2018-11-10T05:05:53.417Z,76.57
2018-11-10T05:06:24.542Z,76.77
2018-11-10T05:06:55.677Z,76.73
2018-11-10T05:07:26.848Z,76.67
2018-11-10T05:07:57.978Z,76.77
2018-11-10T05:08:29.116Z,76.79
2018-11-10T05:09:00.267Z,76.81
2018-11-10T05:09:31.390Z,76.80
2018-11-10T05:10:02.496Z,77.01
2018-11-10T05:10:33.604Z,76.96
2018-11-10T05:11:04.738Z,76.62
2018-11-10T05:11:35.843Z,76.54
2018-11-10T05:12:06.974Z,76.87
2018-11-10T05:12:38.094Z,76.85
2018-11-10T05:13:09.260Z,76.65
2018-11-10T05:13:40.373Z,76.79
2018-11-10T05:14:11.470Z,76.66
2018-11-10T05:14:44.781Z,76.92
2018-11-10T05:15:15.930Z,76.85
2018-11-10T05:15:47.050Z,77.20
2018-11-10T05:16:18.173Z,77.02
2018-11-10T05:16:49.308Z,76.83
2018-11-10T05:17:20.442Z,77.43
2018-11-10T05:17:51.571Z,76.97
2018-11-10T05:18:22.743Z,77.33
2018-11-10T05:18:53.932Z,77.33
2018-11-10T05:19:25.063Z,77.26
2018-11-10T05:19:56.219Z,77.32
2018-11-10T05:20:27.919Z,77.19
2018-11-10T05:20:59.044Z,77.30
2018-11-10T05:21:30.202Z,77.52
2018-11-10T05:22:01.306Z,77.66
2018-11-10T05:22:32.442Z,77.29
2018-11-10T05:23:03.582Z,77.53
2018-11-10T05:23:34.739Z,77.21
2018-11-10T05:24:05.863Z,77.56
2018-11-10T05:24:36.982Z,77.27
2018-11-10T05:25:08.103Z,76.98
2018-11-10T05:25:39.244Z,77.28
2018-11-10T05:26:10.373Z,77.09
2018-11-10T05:26:41.498Z,76.97
2018-11-10T05:27:12.609Z,76.68
2018-11-10T05:27:43.745Z,76.88
2018-11-10T05:28:14.856Z,76.92
2018-11-10T05:28:46.029Z,76.68
2018-11-10T05:29:17.154Z,76.63
2018-11-10T05:29:48.282Z,76.83
2018-11-10T05:30:19.405Z,76.69
2018-11-10T05:30:50.594Z,76.62
2018-11-10T05:31:21.696Z,76.47
2018-11-10T05:31:52.817Z,76.29
2018-11-10T05:32:23.991Z,76.26
2018-11-10T05:32:55.123Z,76.13
2018-11-10T05:33:26.303Z,76.12
2018-11-10T05:33:57.500Z,75.87
2018-11-10T05:34:28.638Z,76.28
2018-11-10T05:34:59.780Z,76.55
2018-11-10T05:35:30.882Z,76.38
2018-11-10T05:36:02.024Z,76.60
2018-11-10T05:36:33.118Z,76.40
2018-11-10T05:37:04.209Z,76.33
2018-11-10T05:37:35.334Z,76.23
2018-11-10T05:38:06.586Z,75.97
2018-11-10T05:38:37.710Z,76.25
2018-11-10T05:39:08.834Z,75.97
2018-11-10T05:39:39.965Z,76.02
2018-11-10T05:40:11.141Z,75.83
2018-11-10T05:40:42.256Z,76.01
2018-11-10T05:41:13.392Z,75.93
2018-11-10T05:41:44.521Z,75.71
2018-11-10T05:42:15.644Z,75.91
2018-11-10T05:42:46.753Z,75.72
2018-11-10T05:43:17.857Z,75.82
2018-11-10T05:43:48.982Z,75.73
2018-11-10T05:44:20.119Z,76.27
2018-11-10T05:44:51.258Z,75.56
2018-11-10T05:45:22.400Z,75.57
2018-11-10T05:45:53.530Z,75.00
2018-11-10T05:46:24.683Z,75.03
2018-11-10T05:46:55.787Z,74.96
2018-11-10T05:47:26.932Z,75.07
2018-11-10T05:47:58.050Z,74.74
2018-11-10T05:48:29.209Z,74.53
2018-11-10T05:49:00.365Z,74.82
2018-11-10T05:49:31.482Z,74.74
2018-11-10T05:50:02.640Z,74.93
2018-11-10T05:50:33.841Z,74.40
2018-11-10T05:51:05.006Z,74.73
2018-11-10T05:51:36.139Z,74.71
2018-11-10T05:52:07.253Z,74.35
2018-11-10T05:52:38.376Z,74.28
2018-11-10T05:53:09.494Z,74.16
2018-11-10T05:53:40.619Z,74.11
2018-11-10T05:54:11.740Z,74.13
2018-11-10T05:54:42.896Z,74.16
2018-11-10T05:55:14.033Z,74.26
2018-11-10T05:55:45.186Z,74.05
2018-11-10T05:56:16.306Z,73.86
2018-11-10T05:56:47.451Z,73.66
2018-11-10T05:57:18.656Z,73.69
2018-11-10T05:57:49.728Z,73.78
2018-11-10T05:58:20.877Z,73.43
2018-11-10T05:58:52.021Z,73.24
2018-11-10T05:59:23.166Z,72.97
2018-11-10T05:59:54.295Z,72.89
2018-11-10T06:00:25.450Z,73.07
2018-11-10T06:00:56.629Z,72.76
2018-11-10T06:01:27.741Z,72.55
2018-11-10T06:01:58.855Z,72.62
2018-11-10T06:02:30.008Z,72.42
2018-11-10T06:03:01.162Z,72.54
2018-11-10T06:03:32.280Z,72.57
2018-11-10T06:04:03.410Z,72.43
2018-11-10T06:04:34.518Z,72.78
2018-11-10T06:05:05.669Z,72.47
2018-11-10T06:05:36.788Z,72.03
2018-11-10T06:06:07.952Z,72.00
2018-11-10T06:06:39.061Z,71.86
2018-11-10T06:07:10.181Z,71.65
2018-11-10T06:07:42.540Z,71.77
2018-11-10T06:08:13.667Z,72.08
2018-11-10T06:08:44.789Z,72.02
2018-11-10T06:09:15.963Z,71.88
2018-11-10T06:09:47.179Z,71.79
2018-11-10T06:10:18.406Z,71.51
2018-11-10T06:10:49.382Z,71.52
2018-11-10T06:11:20.554Z,71.64
2018-11-10T06:11:51.675Z,71.65
2018-11-10T06:12:22.783Z,71.52
2018-11-10T06:12:53.967Z,71.11
2018-11-10T06:13:25.042Z,71.14
2018-11-10T06:13:56.176Z,71.16
2018-11-10T06:14:27.295Z,71.06
2018-11-10T06:14:58.418Z,70.96
2018-11-10T06:15:29.547Z,70.94
2018-11-10T06:16:00.717Z,70.91
2018-11-10T06:16:31.883Z,70.76
2018-11-10T06:17:03.014Z,70.56
2018-11-10T06:17:34.169Z,70.42
2018-11-10T06:18:05.276Z,70.58
2018-11-10T06:18:36.455Z,70.46
2018-11-10T06:19:07.589Z,70.15
2018-11-10T06:19:38.694Z,70.07
2018-11-10T06:20:09.849Z,69.75
2018-11-10T06:20:40.964Z,70.33
2018-11-10T06:21:12.088Z,69.92
2018-11-10T06:21:43.279Z,69.64
2018-11-10T06:22:14.392Z,69.39
2018-11-10T06:22:45.519Z,69.16
2018-11-10T06:23:16.647Z,69.03
2018-11-10T06:23:47.781Z,68.54
2018-11-10T06:24:18.886Z,68.41
2018-11-10T06:24:50.022Z,67.85
2018-11-10T06:25:21.177Z,67.58
2018-11-10T06:25:52.338Z,67.45
2018-11-10T06:26:23.485Z,67.95
2018-11-10T06:26:54.660Z,67.53
2018-11-10T06:27:25.818Z,67.25
2018-11-10T06:27:56.925Z,66.87
2018-11-10T06:28:28.036Z,67.17
2018-11-10T06:28:59.136Z,68.29
2018-11-10T06:29:30.268Z,67.86
2018-11-10T06:30:01.399Z,66.53
2018-11-10T06:30:32.553Z,66.27
2018-11-10T06:31:03.679Z,66.10
2018-11-10T06:31:34.788Z,65.91
2018-11-10T06:32:05.934Z,65.76
2018-11-10T06:32:37.147Z,65.77
2018-11-10T06:33:08.242Z,65.53
2018-11-10T06:33:39.356Z,65.82
2018-11-10T06:34:11.199Z,65.71
2018-11-10T06:34:42.362Z,65.61
2018-11-10T06:35:13.490Z,65.58
2018-11-10T06:35:44.616Z,65.18
2018-11-10T06:36:15.880Z,65.13
2018-11-10T06:36:46.992Z,65.16
2018-11-10T06:37:18.139Z,64.51
2018-11-10T06:37:49.305Z,64.02
2018-11-10T06:38:20.426Z,63.95
2018-11-10T06:38:51.576Z,63.76
2018-11-10T06:39:22.694Z,62.99
2018-11-10T06:39:53.832Z,63.50
2018-11-10T06:40:24.930Z,63.75
2018-11-10T06:40:56.045Z,62.71
2018-11-10T06:41:27.182Z,63.55
2018-11-10T06:41:58.342Z,62.33